Dorset, MN

6:09 AM CDT on July 30, 2014 (GMT -0500)
Park Rapids Municipal (KPKD) Elev 1440 ft | 46.90 °N, 95.07 °W | Change Station

Current weather conditions updated 16 minutes ago

Clear
Clear
53 °F
Feels Like 53 °F
N
4
Wind Variable Wind from NW

Today is forecast to be Warmer than yesterday.

Today
High -- | Low -- °F
--% Chance of Precip.
Yesterday
High -- | Low -- °F
Precip. -- in
5:57 AM 8:55 PM
Waxing Crescent, 11% visible
Pressure 30.12 in
Visibility 10.0 miles
Clouds Clear
Dew Point 51 °F
Humidity 93%
Rainfall 0.00 in
Snow Depth Not available.
UV 0 out of 12
Pollen 6.70 out of 12
Air Quality Not available.
Flu Activity Not available.
METAR KPKD 301053Z AUTO 31003KT 10SM CLR 12/11 A3011 RMK AO2 SLP198 T01170106 TSNO

More Conditions Fewer Conditions

Pressure 30.12 in
Visibility 10.0 miles
Clouds Clear
Dew Point 51 °F
Humidity 93%
Rainfall 0.00 in
Snow Depth Not available.
UV 0 out of 12
Pollen 6.70 out of 12
Air Quality Not available.
Flu Activity Not available.
METAR KPKD 301053Z AUTO 31003KT 10SM CLR 12/11 A3011 RMK AO2 SLP198 T01170106 TSNO

More Conditions Fewer Conditions

10-Day Weather Forecast

Almanac

Astronomy

Jul. 30, 2014 Rise Set
Actual Time 5:57 AM CDT 8:55 PM CDT
Civil Twilight 5:21 AM CDT 9:30 PM CDT
Nautical Twilight 4:35 AM CDT 10:16 PM CDT
Astronomical Twilight 3:40 AM CDT 11:11 PM CDT
Moon 9:46 AM CDT 10:19 PM CDT
Length of Visible Light 16h 09m
Length of Day
14h 57m
Tomorrow will be 2m 33s shorter.
Waxing Crescent, 11% of the Moon is Illuminated
Today
Waxing Crescent
Aug 3
First Quarter
Aug 10
Full
Aug 17
Last Quarter
Aug 25
New

Today's Extremes

State Highs State Lows

Community

WunderPhotos

Upload Photos

1,739,039 photos uploaded!

WunderBlogs® & News

Nearby

Snow Depth

Station Depth Elevation
No new snow has been reported.

Earthquake Activity

City Distance Mag. Time & Date
No recent earthquake activity has been reported nearby.
Minimum magnitude displayed is 2.5.

Coastal Water Temperatures

Place Temperature
No Stations Reporting

Nearby Weather Stations

Station Location Temp. Dew Point Humidity Wind Precip. Elev Updated Type
Bad Medicine Lake, MN, Ponsford, MN 55.1 °F 54 °F 97% NW  at  0.0 mph 0.00 in / hr 1630 ft 5:50 AM CDT Normal
Ten Mile Lake, Hackensack, MN 55.8 °F 54 °F 95% WSW  at  0.0 mph 0.00 in / hr 1352 ft 5:45 AM CDT Normal
May Creek Lodge, Walker, MN 58.3 °F 53 °F 81% SE  at  0.0 mph 0.00 in / hr 1329 ft 6:09 AM CDT Rapid Fire
LEECH LAKE TV, Walker, MN 58.8 °F 55 °F 88% NNE  at  4.0 mph 0.00 in / hr 1484 ft 6:02 AM CDT Normal

Show More Stations Show Fewer Stations